createdAt,value
2018-02-02T00:00:25.789Z,99758.97
2018-02-02T00:02:54.082Z,99765.69
2018-02-02T00:05:22.430Z,99758.48
2018-02-02T00:07:50.894Z,99759.46
2018-02-02T00:10:19.265Z,99758.84
2018-02-02T00:12:47.577Z,99759.83
2018-02-02T00:15:15.876Z,99765.73
2018-02-02T00:17:44.182Z,99764.37
2018-02-02T00:20:13.352Z,99768.09
2018-02-02T00:22:41.623Z,99762.45
2018-02-02T00:25:10.348Z,99767.03
2018-02-02T00:27:38.622Z,99763.50
2018-02-02T00:30:06.973Z,99775.38
2018-02-02T00:32:35.245Z,99773.41
2018-02-02T00:35:03.539Z,99765.70
2018-02-02T00:37:31.855Z,99777.98
2018-02-02T00:40:00.133Z,99781.38
2018-02-02T00:42:31.589Z,99780.44
2018-02-02T00:44:59.882Z,99777.81
2018-02-02T00:47:28.571Z,99781.73
2018-02-02T00:49:56.876Z,99782.28
2018-02-02T00:52:25.175Z,99777.77
2018-02-02T00:54:53.622Z,99780.59
2018-02-02T00:57:21.997Z,99773.02
2018-02-02T00:59:50.315Z,99780.00
2018-02-02T01:02:18.654Z,99778.59
2018-02-02T01:04:47.109Z,99788.82
2018-02-02T01:07:15.387Z,99791.58
2018-02-02T01:09:43.771Z,99787.59
2018-02-02T01:12:12.179Z,99784.02
2018-02-02T01:14:40.603Z,99786.25
2018-02-02T01:17:08.914Z,99787.02
2018-02-02T01:19:37.206Z,99799.27
2018-02-02T01:22:05.511Z,99789.59
2018-02-02T01:24:33.895Z,99794.58
2018-02-02T01:27:02.207Z,99788.53
2018-02-02T01:29:30.671Z,99791.05
2018-02-02T01:31:58.970Z,99791.12
2018-02-02T01:34:27.452Z,99793.93
2018-02-02T01:36:55.919Z,99798.45
2018-02-02T01:39:24.179Z,99795.98
2018-02-02T01:41:59.379Z,99794.22
2018-02-02T01:44:27.723Z,99790.76
2018-02-02T01:46:56.043Z,99789.25
2018-02-02T01:49:24.319Z,99791.41
2018-02-02T01:51:52.838Z,99791.99
2018-02-02T01:54:21.280Z,99796.39
2018-02-02T01:56:49.605Z,99797.69
2018-02-02T01:59:17.911Z,99796.12
2018-02-02T02:01:46.206Z,99798.39
2018-02-02T02:04:14.502Z,99787.20
2018-02-02T02:06:42.793Z,99797.20
2018-02-02T02:09:11.164Z,99789.95
2018-02-02T02:11:39.467Z,99791.67
2018-02-02T02:14:07.864Z,99793.25
2018-02-02T02:16:36.182Z,99792.80
2018-02-02T02:19:04.702Z,99788.92
2018-02-02T02:21:33.187Z,99795.18
2018-02-02T02:24:01.479Z,99796.98
2018-02-02T02:26:29.812Z,99794.07
2018-02-02T02:28:58.195Z,99788.88
2018-02-02T02:31:26.486Z,99798.19
2018-02-02T02:33:54.935Z,99785.74
2018-02-02T02:36:23.364Z,99786.41
2018-02-02T02:38:51.704Z,99787.41
2018-02-02T02:41:20.023Z,99784.59
2018-02-02T02:43:48.333Z,99788.42
2018-02-02T02:46:16.652Z,99789.10
2018-02-02T02:48:44.943Z,99789.94
2018-02-02T02:51:13.262Z,99795.80
2018-02-02T02:53:41.650Z,99788.70
2018-02-02T02:56:10.115Z,99792.88
2018-02-02T02:58:38.383Z,99789.75
2018-02-02T03:01:06.700Z,99795.05
2018-02-02T03:03:34.986Z,99791.12
2018-02-02T03:06:03.384Z,99790.98
2018-02-02T03:08:31.642Z,99800.48
2018-02-02T03:11:00.049Z,99803.05
2018-02-02T03:13:28.324Z,99808.86
2018-02-02T03:15:56.693Z,99807.38
2018-02-02T03:18:25.122Z,99801.13
2018-02-02T03:20:53.440Z,99810.66
2018-02-02T03:23:21.705Z,99814.23
2018-02-02T03:25:49.998Z,99815.09
2018-02-02T03:28:18.287Z,99820.09
2018-02-02T03:30:46.572Z,99817.88
2018-02-02T03:33:14.981Z,99819.98
2018-02-02T03:35:43.280Z,99819.57
2018-02-02T03:38:11.594Z,99821.19
2018-02-02T03:40:40.076Z,99820.51
2018-02-02T03:43:08.391Z,99820.02
2018-02-02T03:45:36.821Z,99818.25
2018-02-02T03:48:05.086Z,99810.52
2018-02-02T03:50:33.391Z,99817.48
2018-02-02T03:53:01.682Z,99820.53
2018-02-02T03:55:30.039Z,99828.31
2018-02-02T03:57:58.765Z,99827.03
2018-02-02T04:00:27.249Z,99831.31
2018-02-02T04:02:55.552Z,99825.61
2018-02-02T04:05:24.060Z,99835.98
2018-02-02T04:07:52.506Z,99836.07
2018-02-02T04:10:20.843Z,99830.03
2018-02-02T04:12:49.172Z,99829.56
2018-02-02T04:15:17.826Z,99830.56
2018-02-02T04:17:46.158Z,99827.16
2018-02-02T04:20:14.459Z,99831.97
2018-02-02T04:22:42.830Z,99834.61
2018-02-02T04:25:11.096Z,99841.17
2018-02-02T04:27:39.359Z,99836.42
2018-02-02T04:30:07.702Z,99841.95
2018-02-02T04:32:35.975Z,99847.06
2018-02-02T04:35:04.690Z,99840.80
2018-02-02T04:37:33.237Z,99832.42
2018-02-02T04:40:01.483Z,99829.82
2018-02-02T04:42:29.826Z,99837.28
2018-02-02T04:44:58.071Z,99832.64
2018-02-02T04:47:26.616Z,99833.01
2018-02-02T04:49:54.881Z,99836.73
2018-02-02T04:52:23.275Z,99844.48
2018-02-02T04:54:51.771Z,99849.45
2018-02-02T04:57:20.165Z,99850.56
2018-02-02T04:59:48.435Z,99850.45
2018-02-02T05:05:12.372Z,99845.78
2018-02-02T05:07:40.720Z,99849.92
2018-02-02T05:10:09.034Z,99857.91
2018-02-02T05:12:37.303Z,99855.56
2018-02-02T05:15:05.685Z,99857.84
